Time;durP1;ratioP1;P1;durP2;ratioP2;P2;SDS_P1;SDS_P2;PMS_P1;PMS_P2;Temp;Humidity;BMP_temperature;BMP_pressure;BME280_temperature;BME280_humidity;BME280_pressure;Samples;Min_cycle;Max_cycle;Signal;HPM_P1;HPM_P2
2022/06/07 00:00:55;;;;;;;3.47;3.17;;;;;;;18.97;50.63;99946.72;1594527;87;21977;-70
2022/06/07 00:03:22;;;;;;;3.50;3.20;;;;;;;18.94;50.89;99942.70;1643206;87;21042;-69
2022/06/07 00:05:48;;;;;;;3.55;3.20;;;;;;;18.93;51.18;99942.44;1642560;86;20936;-68
2022/06/07 00:08:18;;;;;;;5.83;2.85;;;;;;;18.90;51.29;99945.73;1625230;87;21106;-69
2022/06/07 00:10:46;;;;;;;4.15;2.83;;;;;;;18.87;51.33;99942.80;1613638;88;20979;-74
2022/06/07 00:13:15;;;;;;;8.33;3.33;;;;;;;18.84;51.36;99940.69;1615172;87;21168;-74
2022/06/07 00:15:42;;;;;;;2.90;2.70;;;;;;;18.81;51.43;99937.17;1615207;88;21053;-71
2022/06/07 00:18:10;;;;;;;8.13;2.72;;;;;;;18.79;51.54;99932.05;1617207;87;21021;-75
2022/06/07 00:20:38;;;;;;;3.58;3.27;;;;;;;18.75;51.78;99939.20;1628833;87;21069;-74
2022/06/07 00:23:08;;;;;;;5.08;3.22;;;;;;;18.71;51.82;99929.98;1622440;87;20995;-73
2022/06/07 00:25:42;;;;;;;8.68;3.35;;;;;;;18.68;51.86;99927.30;1602323;87;21449;-73
2022/06/07 00:28:09;;;;;;;2.87;2.65;;;;;;;18.66;51.96;99930.88;1587470;90;21105;-73
2022/06/07 00:30:38;;;;;;;7.10;2.85;;;;;;;18.64;51.97;99929.56;1603613;89;21055;-74
2022/06/07 00:33:07;;;;;;;4.62;3.12;;;;;;;18.61;52.11;99925.50;1588178;90;21049;-74
2022/06/07 00:35:33;;;;;;;3.67;3.20;;;;;;;18.61;52.12;99926.05;1588266;90;21140;-71
2022/06/07 00:38:01;;;;;;;3.05;2.85;;;;;;;18.57;52.51;99923.12;1595965;88;21154;-72
2022/06/07 00:40:28;;;;;;;3.37;2.50;;;;;;;18.56;52.65;99926.94;1602934;88;21514;-72
2022/06/07 00:42:55;;;;;;;3.62;3.33;;;;;;;18.54;52.66;99925.63;1588805;88;21135;-71
2022/06/07 00:45:23;;;;;;;3.45;3.15;;;;;;;18.52;52.62;99925.08;1589469;90;21562;-72
2022/06/07 00:47:50;;;;;;;6.33;3.17;;;;;;;18.50;52.60;99928.66;1567454;89;21270;-73
2022/06/07 00:50:50;;;;;;;4.33;3.47;;;;;;;18.47;52.68;99927.33;1580993;90;21154;-71
2022/06/07 00:53:31;;;;;;;5.58;3.10;;;;;;;18.46;52.74;99930.38;1581371;90;20968;-72
2022/06/07 00:55:59;;;;;;;3.33;3.00;;;;;;;18.43;53.06;99924.95;1583323;90;21034;-71
2022/06/07 00:58:29;;;;;;;3.80;3.37;;;;;;;18.39;53.09;99929.37;1607307;88;20960;-72
2022/06/07 01:00:57;;;;;;;4.78;4.17;;;;;;;18.36;53.25;99929.97;1615131;88;20926;-73
2022/06/07 01:03:24;;;;;;;4.95;3.37;;;;;;;18.33;53.33;99931.09;1612663;88;22500;-73
2022/06/07 01:05:53;;;;;;;4.97;3.40;;;;;;;18.29;53.35;99928.97;1615109;88;21497;-72
2022/06/07 01:11:11;;;;;;;5.55;3.98;;;;;;;18.21;53.98;99932.36;1604903;88;21073;-72
2022/06/07 01:13:39;;;;;;;11.93;4.00;;;;;;;18.15;55.14;99929.45;1565967;90;21041;-70
2022/06/07 01:16:08;;;;;;;6.25;4.10;;;;;;;18.05;56.00;99924.14;1578053;90;21305;-70
2022/06/07 01:18:37;;;;;;;4.47;4.10;;;;;;;17.84;57.08;99926.89;1588233;89;21014;-71
2022/06/07 01:21:34;;;;;;;6.10;5.33;;;;;;;17.64;57.99;99928.50;1588174;90;21086;-72
2022/06/07 01:24:03;;;;;;;7.72;4.58;;;;;;;17.50;58.19;99926.19;1544990;90;21136;-72
2022/06/07 01:26:32;;;;;;;5.25;3.40;;;;;;;17.43;58.16;99927.88;1579658;89;21079;-72
2022/06/07 01:29:02;;;;;;;3.92;3.42;;;;;;;17.43;57.95;99924.61;1609900;89;21115;-72
2022/06/07 01:31:31;;;;;;;4.05;3.70;;;;;;;17.41;57.89;99922.72;1610036;89;21062;-70
2022/06/07 01:34:00;;;;;;;3.83;3.52;;;;;;;17.40;57.89;99925.20;1610048;87;21142;-71
2022/06/07 01:36:27;;;;;;;3.87;3.58;;;;;;;17.39;57.80;99919.50;1610326;89;21040;-73
2022/06/07 01:41:55;;;;;;;4.40;2.80;;;;;;;17.37;57.92;99929.84;1605988;87;21238;-71
2022/06/07 01:44:25;;;;;;;7.17;3.40;;;;;;;17.35;57.91;99927.16;1588709;90;21500;-73
2022/06/07 01:46:52;;;;;;;3.52;3.22;;;;;;;17.33;57.77;99932.06;1598564;89;21092;-71
2022/06/07 01:49:23;;;;;;;4.10;3.02;;;;;;;17.31;58.00;99927.48;1608994;88;21079;-73
2022/06/07 01:51:52;;;;;;;5.28;4.12;;;;;;;17.25;58.75;99924.00;1587547;89;21441;-73
2022/06/07 01:54:20;;;;;;;3.80;3.50;;;;;;;17.19;59.23;99928.41;1593699;87;21174;-71
2022/06/07 01:56:49;;;;;;;5.95;3.83;;;;;;;17.15;59.08;99923.29;1622080;87;21039;-73
2022/06/07 01:59:17;;;;;;;8.05;4.03;;;;;;;17.10;59.34;99924.16;1639042;86;20932;-74
2022/06/07 02:01:46;;;;;;;5.97;3.62;;;;;;;17.04;60.13;99921.76;1617812;87;21028;-72
2022/06/07 02:04:14;;;;;;;4.30;2.92;;;;;;;16.90;60.78;99929.23;1604345;89;21102;-73
2022/06/07 02:06:41;;;;;;;6.80;3.47;;;;;;;16.83;60.55;99926.05;1577402;88;21253;-72
2022/06/07 02:09:09;;;;;;;5.03;3.52;;;;;;;16.82;60.23;99920.89;1621647;88;21050;-77
2022/06/07 02:11:38;;;;;;;3.17;2.87;;;;;;;16.83;59.99;99923.88;1607902;88;20979;-78
2022/06/07 02:14:06;;;;;;;4.90;3.37;;;;;;;16.82;59.85;99921.70;1595145;90;21007;-78
2022/06/07 02:16:34;;;;;;;3.50;3.20;;;;;;;16.82;59.81;99928.49;1617284;88;21115;-77
2022/06/07 02:19:02;;;;;;;3.83;2.90;;;;;;;16.84;59.76;99929.55;1637634;87;21177;-79
2022/06/07 02:21:33;;;;;;;2.98;2.72;;;;;;;16.85;59.78;99928.45;1603302;88;21143;-78
2022/06/07 02:24:00;;;;;;;5.22;2.83;;;;;;;16.86;59.69;99921.94;1608934;89;21127;-77
2022/06/07 02:26:34;;;;;;;8.50;2.95;;;;;;;16.87;59.58;99922.20;1635299;87;21503;-77
2022/06/07 02:29:16;;;;;;;3.35;2.70;;;;;;;16.87;59.58;99921.66;1635585;87;21588;-77
2022/06/07 02:31:48;;;;;;;6.33;2.90;;;;;;;16.90;59.44;99923.80;1644737;87;21219;-76
2022/06/07 02:34:15;;;;;;;2.77;2.58;;;;;;;16.91;59.37;99919.98;1621582;88;21089;-77
2022/06/07 02:36:46;;;;;;;3.17;2.85;;;;;;;16.92;59.33;99920.80;1621739;88;21022;-77
2022/06/07 02:39:14;;;;;;;3.90;2.62;;;;;;;16.94;59.27;99922.13;1597729;88;21034;-77
2022/06/07 02:41:40;;;;;;;6.97;2.80;;;;;;;16.97;59.23;99925.64;1608029;88;21041;-76
2022/06/07 02:44:08;;;;;;;4.53;2.90;;;;;;;16.99;59.14;99924.79;1605059;88;21959;-76
2022/06/07 02:46:35;;;;;;;3.15;2.85;;;;;;;17.04;59.20;99928.01;1595699;90;21094;-77
2022/06/07 02:49:05;;;;;;;6.12;3.37;;;;;;;17.07;59.29;99929.36;1595750;90;21102;-77
2022/06/07 02:51:32;;;;;;;4.17;3.77;;;;;;;17.10;59.41;99920.08;1595724;90;21531;-76
2022/06/07 02:54:00;;;;;;;3.47;3.17;;;;;;;17.13;59.48;99926.28;1595708;90;21043;-76
2022/06/07 02:56:29;;;;;;;29.82;20.37;;;;;;;17.16;59.38;99923.56;1581557;88;21377;-76
2022/06/07 02:58:57;;;;;;;20.92;16.35;;;;;;;17.18;59.35;99926.23;1621699;88;20975;-77
2022/06/07 03:01:24;;;;;;;14.98;12.75;;;;;;;17.21;59.39;99928.94;1646953;87;22144;-76
2022/06/07 03:03:53;;;;;;;13.28;9.88;;;;;;;17.24;59.42;99932.44;1633999;87;21583;-77
2022/06/07 03:06:20;;;;;;;10.32;8.83;;;;;;;17.26;59.50;99928.34;1595630;90;21285;-79
2022/06/07 03:08:48;;;;;;;5.95;5.25;;;;;;;17.29;59.44;99927.77;1593531;90;21078;-77
2022/06/07 03:11:16;;;;;;;8.35;4.47;;;;;;;17.30;59.59;99923.95;1593466;88;21527;-79
2022/06/07 03:13:43;;;;;;;4.40;4.00;;;;;;;17.33;59.83;99921.19;1594471;90;21015;-80
2022/06/07 03:16:15;;;;;;;3.98;3.50;;;;;;;17.34;59.87;99926.34;1593650;90;20991;-80
2022/06/07 03:18:42;;;;;;;4.78;4.25;;;;;;;17.38;59.82;99921.95;1580034;90;21539;-80
2022/06/07 03:21:10;;;;;;;5.70;3.75;;;;;;;17.41;59.81;99925.44;1595867;90;21323;-80
2022/06/07 03:23:39;;;;;;;3.80;3.50;;;;;;;17.45;59.84;99931.13;1596765;88;21014;-81
2022/06/07 03:26:10;;;;;;;4.85;3.90;;;;;;;17.49;59.88;99928.64;1610125;88;21042;-80
2022/06/07 03:28:40;;;;;;;4.90;4.40;;;;;;;17.52;59.78;99928.05;1586148;90;21058;-80
2022/06/07 03:31:13;;;;;;;7.62;5.35;;;;;;;17.56;59.95;99937.24;1571148;91;21091;-80
2022/06/07 03:33:42;;;;;;;4.85;3.50;;;;;;;17.58;59.94;99929.62;1585392;90;21300;-80
2022/06/07 03:36:13;;;;;;;4.12;3.42;;;;;;;17.61;59.86;99928.51;1565453;90;21100;-76
2022/06/07 03:38:41;;;;;;;6.15;3.80;;;;;;;17.65;60.01;99927.41;1564447;90;21027;-78
2022/06/07 03:41:08;;;;;;;3.50;3.05;;;;;;;17.68;59.97;99928.17;1582923;89;21027;-75
2022/06/07 03:43:37;;;;;;;3.33;3.00;;;;;;;17.71;60.12;99922.95;1587948;89;21642;-76
2022/06/07 03:46:13;;;;;;;7.55;3.50;;;;;;;17.74;60.12;99921.02;1609278;89;21548;-83
2022/06/07 03:48:42;;;;;;;4.42;3.33;;;;;;;17.79;59.94;99925.59;1592873;89;21552;-77
2022/06/07 03:51:10;;;;;;;3.10;2.90;;;;;;;17.84;59.81;99922.23;1581910;90;21058;-78
2022/06/07 03:53:37;;;;;;;11.97;9.38;;;;;;;17.89;60.02;99929.52;1581886;90;20984;-77
2022/06/07 03:56:06;;;;;;;4.03;3.72;;;;;;;17.93;60.29;99929.22;1584962;89;21087;-76
2022/06/07 03:58:37;;;;;;;6.65;3.98;;;;;;;17.95;60.51;99927.00;1559834;90;21093;-76
2022/06/07 04:01:05;;;;;;;5.42;4.40;;;;;;;17.99;60.39;99919.05;1569903;89;21150;-77
2022/06/07 04:03:33;;;;;;;9.05;3.90;;;;;;;18.04;60.41;99925.78;1592044;89;21099;-77
2022/06/07 04:06:00;;;;;;;5.12;3.92;;;;;;;18.09;60.32;99922.99;1611764;89;21070;-77
2022/06/07 04:08:30;;;;;;;6.65;4.05;;;;;;;18.13;60.29;99922.11;1595859;90;21541;-77
2022/06/07 04:11:00;;;;;;;8.83;3.62;;;;;;;18.17;60.39;99919.08;1578312;90;21191;-77
2022/06/07 04:13:36;;;;;;;7.65;4.83;;;;;;;18.21;60.08;99926.91;1568390;90;21107;-77
2022/06/07 04:16:07;;;;;;;6.35;4.60;;;;;;;18.27;59.80;99929.02;1585183;90;21126;-78
2022/06/07 04:18:35;;;;;;;8.93;4.20;;;;;;;18.30;59.53;99924.34;1588853;89;22043;-77
2022/06/07 04:21:02;;;;;;;7.70;4.83;;;;;;;18.36;59.48;99931.33;1594996;90;21021;-77
2022/06/07 04:23:29;;;;;;;10.32;6.30;;;;;;;18.42;59.26;99927.95;1589097;89;21887;-77
2022/06/07 04:26:07;;;;;;;7.58;5.78;;;;;;;18.46;59.06;99924.37;1610075;87;20964;-78
2022/06/07 04:28:35;;;;;;;5.28;4.87;;;;;;;18.52;58.92;99928.61;1565262;90;21181;-78
2022/06/07 04:31:02;;;;;;;13.13;5.15;;;;;;;18.57;58.75;99934.02;1617345;87;21031;-77
2022/06/07 04:33:29;;;;;;;23.27;7.45;;;;;;;18.63;58.63;99933.39;1575498;89;21090;-76
2022/06/07 04:35:57;;;;;;;10.20;5.87;;;;;;;18.68;58.50;99936.84;1585366;90;21302;-76
2022/06/07 04:38:25;;;;;;;10.98;6.33;;;;;;;18.74;58.37;99928.03;1585098;90;21129;-77
2022/06/07 04:40:53;;;;;;;15.05;5.70;;;;;;;18.80;58.17;99934.22;1590147;87;21135;-79
2022/06/07 04:43:21;;;;;;;15.55;6.40;;;;;;;18.85;57.96;99930.05;1623112;87;21607;-78
2022/06/07 04:45:49;;;;;;;7.40;4.83;;;;;;;18.89;57.78;99929.15;1631322;87;21702;-78
2022/06/07 04:48:19;;;;;;;13.70;4.67;;;;;;;18.94;57.54;99929.61;1609200;88;21165;-78
2022/06/07 04:51:04;;;;;;;9.00;6.05;;;;;;;18.99;57.21;99932.25;1608866;88;21105;-76
2022/06/07 04:53:33;;;;;;;11.48;7.80;;;;;;;19.05;56.88;99931.03;1607192;88;21087;-78
2022/06/07 04:56:02;;;;;;;6.50;5.08;;;;;;;19.11;56.71;99931.20;1617239;87;21107;-77
2022/06/07 04:58:30;;;;;;;10.40;5.05;;;;;;;19.16;56.65;99928.39;1616511;87;21357;-78
2022/06/07 05:00:58;;;;;;;4.85;4.30;;;;;;;19.22;56.55;99933.20;1642159;87;21323;-75
2022/06/07 05:03:24;;;;;;;4.12;3.50;;;;;;;19.27;56.37;99931.75;1642103;86;21054;-75
2022/06/07 05:05:51;;;;;;;3.77;3.35;;;;;;;19.34;55.90;99933.50;1643322;87;20979;-79
2022/06/07 05:08:19;;;;;;;5.60;4.20;;;;;;;19.40;55.57;99932.30;1629100;87;20979;-85
2022/06/07 05:10:49;;;;;;;8.43;3.92;;;;;;;19.46;55.25;99937.95;1616281;87;20996;-76
2022/06/07 05:13:19;;;;;;;5.30;3.20;;;;;;;19.52;54.74;99940.81;1619591;86;21008;-78
2022/06/07 05:15:56;;;;;;;6.58;3.25;;;;;;;19.58;54.53;99942.34;1589417;88;20968;-78
2022/06/07 05:18:24;;;;;;;9.88;4.33;;;;;;;19.66;54.34;99948.48;1620246;87;21517;-77
2022/06/07 05:20:51;;;;;;;12.70;6.30;;;;;;;19.73;54.21;99946.69;1593866;88;21103;-77
2022/06/07 05:23:19;;;;;;;9.90;5.37;;;;;;;19.81;54.25;99949.51;1588484;90;21536;-77
2022/06/07 05:26:08;;;;;;;6.60;5.30;;;;;;;19.86;54.35;99948.04;1618846;87;21347;-80
2022/06/07 05:28:36;;;;;;;7.12;5.55;;;;;;;19.95;53.46;99953.62;1606355;87;21056;-79
2022/06/07 05:31:04;;;;;;;8.40;5.45;;;;;;;20.03;53.08;99949.61;1603609;88;21088;-78
2022/06/07 05:33:47;;;;;;;8.23;4.42;;;;;;;20.11;52.79;99948.06;1602465;89;21533;-77
2022/06/07 05:36:15;;;;;;;6.58;3.80;;;;;;;20.19;51.98;99949.28;1604362;88;21604;-78
2022/06/07 05:38:44;;;;;;;5.42;3.47;;;;;;;20.26;51.59;99951.83;1630828;88;21306;-78
2022/06/07 05:41:25;;;;;;;3.12;2.83;;;;;;;20.33;51.44;99951.45;1612403;87;20991;-77
2022/06/07 05:43:54;;;;;;;2.98;2.70;;;;;;;20.40;51.22;99953.18;1607239;88;21099;-79
2022/06/07 05:46:25;;;;;;;6.50;2.67;;;;;;;20.47;51.14;99952.20;1627669;88;21056;-78
2022/06/07 05:48:56;;;;;;;4.87;3.30;;;;;;;20.53;50.74;99952.31;1628330;86;21369;-77
2022/06/07 05:51:28;;;;;;;;;;;;;;;20.60;50.24;99940.97;1616523;88;21115;-77
2022/06/07 05:53:55;;;;;;;5.15;2.75;;;;;;;20.65;49.41;99942.22;1604584;88;20213;-77
2022/06/07 05:56:22;;;;;;;2.40;2.20;;;;;;;20.70;49.26;99937.44;1603216;88;20976;-78
2022/06/07 05:58:52;;;;;;;4.67;3.27;;;;;;;20.77;49.02;99941.89;1603718;88;20941;-77
2022/06/07 06:01:19;;;;;;;4.55;2.60;;;;;;;20.83;48.64;99943.39;1603327;89;21709;-76
2022/06/07 06:03:48;;;;;;;3.12;2.83;;;;;;;20.90;47.97;99940.23;1614055;88;21167;-77
2022/06/07 06:06:15;;;;;;;3.05;2.08;;;;;;;20.97;47.98;99942.50;1626684;88;21075;-78
2022/06/07 06:11:32;;;;;;;3.50;2.67;;;;;;;21.11;47.81;99942.67;1629546;88;21060;-77
2022/06/07 06:14:13;;;;;;;3.50;2.80;;;;;;;21.17;47.81;99938.72;1579043;90;21082;-78
2022/06/07 06:16:44;;;;;;;5.15;2.77;;;;;;;21.27;47.61;99943.93;1579573;90;21156;-78
2022/06/07 06:19:12;;;;;;;4.50;2.90;;;;;;;21.34;47.78;99944.86;1603112;88;21654;-77
2022/06/07 06:21:43;;;;;;;3.58;1.90;;;;;;;21.38;47.57;99941.73;1607813;89;21107;-78
2022/06/07 06:24:10;;;;;;;4.95;2.02;;;;;;;21.47;47.29;99937.66;1613462;87;22264;-78
2022/06/07 06:26:38;;;;;;;5.00;2.10;;;;;;;21.55;46.98;99940.98;1588210;89;21122;-77
2022/06/07 06:29:09;;;;;;;2.35;2.10;;;;;;;21.61;46.74;99935.62;1606992;88;21417;-77
2022/06/07 06:31:39;;;;;;;2.70;2.50;;;;;;;21.67;46.51;99932.99;1614131;88;21024;-77
2022/06/07 06:34:06;;;;;;;3.25;2.47;;;;;;;21.72;46.47;99939.69;1614298;88;20984;-76
2022/06/07 06:36:34;;;;;;;3.08;2.77;;;;;;;21.79;45.98;99941.39;1614217;88;21536;-77
2022/06/07 06:39:01;;;;;;;2.92;2.27;;;;;;;21.83;45.75;99931.97;1597365;88;21726;-78
2022/06/07 06:41:32;;;;;;;6.37;2.00;;;;;;;21.88;45.45;99930.45;1588634;90;21207;-77
2022/06/07 06:44:01;;;;;;;2.35;2.00;;;;;;;21.95;45.22;99927.53;1585316;90;21046;-78
2022/06/07 06:46:32;;;;;;;2.33;2.12;;;;;;;22.02;44.62;99933.33;1606362;89;21521;-79
2022/06/07 06:49:03;;;;;;;2.27;2.07;;;;;;;22.10;44.36;99923.53;1609206;89;21031;-76
2022/06/07 06:51:30;;;;;;;3.90;2.17;;;;;;;22.16;44.01;99921.67;1602241;89;21063;-78
2022/06/07 06:53:59;;;;;;;3.05;2.40;;;;;;;22.22;43.37;99912.73;1611992;89;21493;-79
2022/06/07 06:56:29;;;;;;;4.22;2.58;;;;;;;22.29;43.51;99915.00;1605635;89;21015;-79
2022/06/07 06:58:57;;;;;;;2.50;2.30;;;;;;;22.34;43.42;99914.28;1585101;90;21090;-76
2022/06/07 07:01:33;;;;;;;2.20;2.00;;;;;;;22.39;43.32;99908.64;1584141;90;21091;-76
2022/06/07 07:04:06;;;;;;;3.02;2.75;;;;;;;22.46;43.25;99907.58;1573907;90;21074;-76
2022/06/07 07:06:34;;;;;;;3.05;2.40;;;;;;;22.55;43.26;99911.67;1564932;90;21149;-76
2022/06/07 07:09:03;;;;;;;3.52;2.33;;;;;;;22.63;43.20;99905.96;1614235;88;21100;-78
2022/06/07 07:11:43;;;;;;;2.25;2.00;;;;;;;22.70;43.00;99907.63;1606187;88;21155;-80
2022/06/07 07:14:10;;;;;;;2.40;2.12;;;;;;;22.77;42.35;99912.09;1588801;88;21125;-77
2022/06/07 07:16:44;;;;;;;3.45;2.22;;;;;;;22.82;41.80;99910.00;1606473;88;21048;-76
2022/06/07 07:19:12;;;;;;;2.80;2.17;;;;;;;22.84;41.62;99909.09;1614336;88;21861;-76
2022/06/07 07:21:43;;;;;;;2.37;1.92;;;;;;;22.86;41.60;99913.70;1591789;90;21565;-76
2022/06/07 07:24:13;;;;;;;2.67;1.65;;;;;;;22.92;41.25;99914.34;1611711;89;21071;-76
2022/06/07 07:26:43;;;;;;;3.08;2.22;;;;;;;22.97;40.60;99908.67;1579760;89;21054;-74
2022/06/07 07:29:12;;;;;;;3.08;2.55;;;;;;;23.01;40.87;99911.00;1579970;89;21075;-75
2022/06/07 07:31:40;;;;;;;2.70;1.82;;;;;;;23.06;40.78;99912.77;1616217;87;21970;-74
2022/06/07 07:34:09;;;;;;;4.62;1.80;;;;;;;23.12;40.58;99911.46;1616008;88;20960;-74
2022/06/07 07:36:39;;;;;;;3.77;2.08;;;;;;;23.13;40.30;99919.34;1622730;86;26452;-74
2022/06/07 07:39:06;;;;;;;13.95;3.15;;;;;;;23.18;40.14;99917.80;1634071;86;21022;-74
2022/06/07 07:41:36;;;;;;;3.90;2.12;;;;;;;23.22;39.78;99914.63;1631981;87;21070;-75
2022/06/07 07:44:05;;;;;;;2.42;1.98;;;;;;;23.26;39.59;99920.30;1633797;86;21302;-74
2022/06/07 07:46:35;;;;;;;2.27;2.08;;;;;;;23.29;39.45;99912.77;1606970;87;21531;-74
2022/06/07 07:49:03;;;;;;;2.77;1.80;;;;;;;23.34;39.69;99918.88;1630745;87;21042;-73
2022/06/07 07:51:35;;;;;;;2.77;1.95;;;;;;;23.40;39.27;99920.29;1630389;87;21159;-72
2022/06/07 07:54:03;;;;;;;8.05;1.90;;;;;;;23.44;38.94;99920.45;1630739;87;21038;-74
2022/06/07 07:56:30;;;;;;;1.82;1.72;;;;;;;23.51;38.86;99908.97;1607260;87;21280;-74
2022/06/07 07:58:58;;;;;;;2.20;2.00;;;;;;;23.58;38.38;99910.65;1647264;86;21523;-74
2022/06/07 08:01:28;;;;;;;3.75;1.90;;;;;;;23.66;38.33;99915.28;1654793;86;21034;-75
2022/06/07 08:03:57;;;;;;;3.50;2.20;;;;;;;23.70;38.52;99915.66;1636613;87;21027;-74
2022/06/07 08:06:28;;;;;;;2.10;1.90;;;;;;;23.76;38.64;99910.79;1636135;87;21078;-74
2022/06/07 08:08:59;;;;;;;5.87;2.02;;;;;;;23.84;38.63;99918.16;1636959;87;21867;-74
2022/06/07 08:11:28;;;;;;;1.60;1.50;;;;;;;23.90;38.52;99908.60;1650026;86;21054;-74
2022/06/07 08:13:56;;;;;;;1.98;1.57;;;;;;;23.98;38.22;99908.33;1633819;86;21038;-76
2022/06/07 08:16:23;;;;;;;4.50;2.45;;;;;;;24.02;37.95;99905.14;1633871;86;21016;-77
2022/06/07 08:18:53;;;;;;;6.22;2.40;;;;;;;24.06;38.36;99898.64;1647985;86;21110;-79
2022/06/07 08:21:24;;;;;;;2.22;2.02;;;;;;;24.11;38.00;99913.56;1643253;86;21155;-76
2022/06/07 08:23:50;;;;;;;3.60;1.77;;;;;;;24.16;37.96;99912.02;1651783;86;21090;-78
2022/06/07 08:26:18;;;;;;;1.72;1.62;;;;;;;24.25;37.23;99906.45;1647212;86;21019;-75
2022/06/07 08:28:48;;;;;;;7.87;2.00;;;;;;;24.25;36.65;99903.14;1632898;87;21043;-76
2022/06/07 08:31:21;;;;;;;3.70;1.90;;;;;;;24.27;36.73;99902.21;1635554;86;21094;-76
2022/06/07 08:39:17;;;;;;;1.80;1.70;;;;;;;24.63;36.27;99902.97;1547478;90;21650;-75
2022/06/07 08:41:57;;;;;;;2.52;2.33;;;;;;;24.74;36.56;99907.48;1581865;89;21116;-74
2022/06/07 08:44:38;;;;;;;4.28;2.27;;;;;;;24.84;37.30;99898.00;1601610;89;21039;-74
2022/06/07 08:47:34;;;;;;;6.87;2.52;;;;;;;24.92;37.21;99902.63;1632956;87;22002;-80
2022/06/07 08:50:19;;;;;;;2.42;2.05;;;;;;;24.94;37.08;99903.11;1622360;86;21063;-75
2022/06/07 08:52:47;;;;;;;2.60;2.40;;;;;;;24.94;37.45;99898.98;1631954;87;20950;-76
2022/06/07 08:55:24;;;;;;;2.33;2.12;;;;;;;24.97;37.41;99890.03;1633061;86;21059;-76
2022/06/07 08:58:00;;;;;;;2.30;2.10;;;;;;;24.98;37.46;99893.83;1632600;87;21052;-75
2022/06/07 09:00:32;;;;;;;2.75;2.42;;;;;;;24.98;37.16;99898.52;1646351;86;21270;-76
2022/06/07 09:03:23;;;;;;;;;;;;;;;24.94;37.08;99891.50;1644899;86;21057;-74
2022/06/07 09:05:55;;;;;;;2.80;2.58;;;;;;;24.93;37.21;99891.86;1635776;87;20145;-76
2022/06/07 09:08:37;;;;;;;3.62;2.45;;;;;;;24.87;37.11;99889.89;1632651;87;21051;-73
2022/06/07 09:13:54;;;;;;;2.40;2.12;;;;;;;24.81;37.31;99886.27;1636470;87;21525;-72
2022/06/07 09:16:21;;;;;;;2.22;2.05;;;;;;;24.77;37.01;99894.41;1610987;87;21127;-71
2022/06/07 09:18:51;;;;;;;3.92;2.42;;;;;;;24.75;37.16;99887.05;1633807;87;21047;-75
2022/06/07 09:21:27;;;;;;;6.10;2.25;;;;;;;24.74;37.17;99890.41;1632820;87;21836;-74
2022/06/07 09:23:53;;;;;;;2.50;2.30;;;;;;;24.77;37.18;99883.41;1643870;86;21077;-75
2022/06/07 09:26:28;;;;;;;5.90;2.50;;;;;;;24.81;37.15;99880.77;1639539;86;21640;-72
2022/06/07 09:29:13;;;;;;;2.60;2.40;;;;;;;24.86;36.80;99878.61;1622977;87;21057;-74
2022/06/07 09:31:41;;;;;;;3.92;1.90;;;;;;;24.89;36.59;99879.33;1621476;87;21643;-75
2022/06/07 09:34:10;;;;;;;3.35;2.30;;;;;;;24.97;36.77;99876.27;1637266;86;21533;-75
2022/06/07 09:36:38;;;;;;;2.42;2.22;;;;;;;25.07;36.65;99874.45;1643446;86;21083;-75
2022/06/07 09:39:29;;;;;;;4.15;2.35;;;;;;;25.21;36.47;99876.88;1624572;87;21123;-75
2022/06/07 09:42:19;;;;;;;2.83;2.33;;;;;;;25.18;35.95;99877.78;1630081;88;21030;-76
2022/06/07 09:45:01;;;;;;;3.10;2.80;;;;;;;25.11;35.94;99874.80;1632041;87;21028;-71
2022/06/07 09:47:30;;;;;;;3.27;2.00;;;;;;;25.09;35.94;99871.58;1634740;87;21046;-72
2022/06/07 09:50:18;;;;;;;2.08;1.87;;;;;;;25.11;36.11;99872.05;1636707;87;21548;-78
2022/06/07 09:52:52;;;;;;;4.00;2.65;;;;;;;25.17;35.74;99874.82;1636577;87;21889;-80
2022/06/07 09:55:35;;;;;;;4.67;2.02;;;;;;;25.17;35.94;99872.64;1643222;86;21078;-84
2022/06/07 09:58:42;;;;;;;4.05;2.40;;;;;;;25.22;36.21;99866.91;1652847;86;20963;-84
2022/06/07 10:01:17;;;;;;;2.42;2.22;;;;;;;25.32;35.95;99866.45;1636691;87;21201;-83
2022/06/07 10:04:10;;;;;;;2.55;2.35;;;;;;;25.37;35.80;99859.92;1635017;87;21051;-81
2022/06/07 10:06:49;;;;;;;3.47;2.42;;;;;;;25.41;35.83;99856.70;1632889;87;20928;-83
2022/06/07 10:09:37;;;;;;;4.62;2.27;;;;;;;25.47;35.72;99852.55;1632922;87;20994;-84
2022/06/07 10:12:33;;;;;;;2.50;2.30;;;;;;;25.56;35.52;99850.53;1596092;87;21024;-83
2022/06/07 10:15:29;;;;;;;3.50;2.00;;;;;;;25.67;35.65;99847.52;1629692;87;21098;-81
2022/06/07 10:18:13;;;;;;;2.62;2.10;;;;;;;25.88;35.27;99845.42;1628037;86;21562;-80
2022/06/07 10:20:53;;;;;;;2.33;2.12;;;;;;;25.97;34.89;99836.44;1639207;87;21100;-78
2022/06/07 10:23:59;;;;;;;2.77;2.02;;;;;;;26.11;35.14;99836.62;1639014;87;21123;-80
2022/06/07 10:26:57;;;;;;;2.90;2.17;;;;;;;26.33;34.95;99831.99;1637707;87;21020;-81
2022/06/07 10:30:09;;;;;;;3.75;2.22;;;;;;;26.48;34.54;99827.06;1612959;87;21074;-79
2022/06/07 10:32:57;;;;;;;2.92;2.62;;;;;;;26.61;34.03;99837.48;1636690;87;21543;-80
2022/06/07 10:35:39;;;;;;;3.02;2.10;;;;;;;26.69;33.72;99833.75;1636823;87;21278;-85
2022/06/07 10:38:44;;;;;;;1.95;1.85;;;;;;;26.70;33.31;99829.84;1633288;87;21140;-83
2022/06/07 10:41:37;;;;;;;3.42;2.65;;;;;;;26.77;33.47;99832.20;1633447;87;21581;-81
2022/06/07 10:44:31;;;;;;;6.92;2.25;;;;;;;26.93;33.16;99835.02;1637032;87;21121;-80
2022/06/07 10:47:20;;;;;;;2.55;2.05;;;;;;;26.94;32.72;99831.67;1636640;87;21041;-80
2022/06/07 10:50:06;;;;;;;2.80;2.02;;;;;;;26.87;33.27;99823.42;1637197;86;21145;-79
2022/06/07 10:53:05;;;;;;;2.60;2.10;;;;;;;26.95;33.58;99819.48;1649941;86;22162;-81
2022/06/07 10:55:40;;;;;;;2.95;2.75;;;;;;;27.03;33.13;99820.68;1648055;86;21054;-74
2022/06/07 10:58:38;;;;;;;2.58;2.30;;;;;;;27.12;33.45;99817.73;1645304;86;20978;-76
2022/06/07 11:01:25;;;;;;;6.55;5.95;;;;;;;27.20;32.83;99813.97;1612182;88;21057;-76
2022/06/07 11:10:17;;;;;;;3.02;2.10;;;;;;;27.18;32.79;99811.59;1646948;86;20985;-74
2022/06/07 11:13:17;;;;;;;2.40;2.20;;;;;;;27.29;32.89;99805.72;1626871;88;21543;-75
2022/06/07 11:16:11;;;;;;;2.70;2.50;;;;;;;27.49;32.43;99807.99;1621802;87;21023;-74
2022/06/07 11:18:41;;;;;;;2.62;2.42;;;;;;;27.61;31.78;99805.70;1636755;87;21325;-76
2022/06/07 11:21:23;;;;;;;3.77;2.30;;;;;;;27.66;32.22;99791.61;1636588;87;20912;-74
2022/06/07 11:24:17;;;;;;;2.27;2.17;;;;;;;27.82;31.99;99792.94;1636627;87;21050;-75
2022/06/07 11:26:58;;;;;;;4.12;2.58;;;;;;;27.93;31.66;99788.42;1611718;89;21066;-74
2022/06/07 11:29:29;;;;;;;4.55;2.27;;;;;;;28.01;31.59;99784.66;1615911;88;21026;-77
2022/06/07 11:31:56;;;;;;;3.08;2.37;;;;;;;28.18;31.01;99789.19;1640457;87;22057;-75
2022/06/07 11:34:26;;;;;;;2.25;2.05;;;;;;;28.16;30.74;99781.82;1641471;87;21187;-74
2022/06/07 11:37:09;;;;;;;4.75;1.95;;;;;;;28.07;31.19;99783.98;1641427;87;21071;-77
2022/06/07 11:39:44;;;;;;;4.60;2.40;;;;;;;28.13;31.34;99781.76;1638850;87;21097;-75
2022/06/07 11:42:30;;;;;;;6.15;2.25;;;;;;;28.25;31.03;99782.97;1641494;87;21097;-75
2022/06/07 11:45:07;;;;;;;2.27;2.08;;;;;;;28.38;31.08;99775.33;1640954;87;21030;-77
2022/06/07 11:48:06;;;;;;;2.30;2.10;;;;;;;28.37;30.57;99773.14;1641374;87;21026;-75
2022/06/07 11:50:56;;;;;;;3.75;2.30;;;;;;;28.18;30.36;99766.25;1640889;87;21090;-76
2022/06/07 11:53:32;;;;;;;4.53;2.17;;;;;;;27.88;30.87;99767.39;1641217;87;21093;-73
2022/06/07 11:56:13;;;;;;;2.20;1.95;;;;;;;27.74;30.78;99761.56;1641163;87;21045;-73
2022/06/07 11:59:02;;;;;;;2.83;2.20;;;;;;;27.61;31.36;99762.88;1647072;86;21129;-77
2022/06/07 12:01:42;;;;;;;1.92;1.82;;;;;;;27.70;31.90;99756.55;1637709;87;21135;-76
2022/06/07 12:04:47;;;;;;;4.83;2.65;;;;;;;28.07;31.47;99752.17;1637938;87;21122;-78
2022/06/07 12:07:32;;;;;;;5.72;2.37;;;;;;;28.43;30.89;99741.83;1637348;87;21096;-80
2022/06/07 12:10:29;;;;;;;2.45;1.92;;;;;;;28.68;31.22;99741.66;1637506;87;21054;-81
2022/06/07 12:13:09;;;;;;;2.52;2.30;;;;;;;28.76;31.00;99737.89;1637302;87;21027;-83
2022/06/07 12:15:48;;;;;;;11.15;2.77;;;;;;;28.76;30.19;99740.66;1639923;87;21499;-86
2022/06/07 12:18:28;;;;;;;2.80;2.60;;;;;;;28.74;30.07;99744.95;1617652;87;20998;-85
2022/06/07 12:21:02;;;;;;;4.70;2.22;;;;;;;28.78;30.16;99735.53;1593771;88;21054;-82
2022/06/07 12:23:34;;;;;;;4.58;3.15;;;;;;;28.92;30.56;99736.38;1601948;88;21125;-83
2022/06/07 12:26:20;;;;;;;2.98;2.20;;;;;;;29.12;29.81;99733.70;1614414;88;21222;-77